sensor_id;sensor_type;location;lat;lon;timestamp;temperature;humidity
52849;DHT22;38714;53.180;5.812;2022-09-09T00:00:34;14.30;99.90
52849;DHT22;38714;53.180;5.812;2022-09-09T00:03:17;14.30;99.90
52849;DHT22;38714;53.180;5.812;2022-09-09T00:05:45;14.30;99.90
52849;DHT22;38714;53.180;5.812;2022-09-09T00:08:16;14.30;99.90
52849;DHT22;38714;53.180;5.812;2022-09-09T00:10:43;14.30;99.90
52849;DHT22;38714;53.180;5.812;2022-09-09T00:13:13;14.30;99.90
52849;DHT22;38714;53.180;5.812;2022-09-09T00:16:00;14.30;99.90
52849;DHT22;38714;53.180;5.812;2022-09-09T00:20:58;14.30;99.90
52849;DHT22;38714;53.180;5.812;2022-09-09T00:23:29;14.30;99.90
52849;DHT22;38714;53.180;5.812;2022-09-09T00:28:41;14.30;99.90
52849;DHT22;38714;53.180;5.812;2022-09-09T00:31:15;14.30;99.90
52849;DHT22;38714;53.180;5.812;2022-09-09T00:33:43;14.30;99.90
52849;DHT22;38714;53.180;5.812;2022-09-09T00:36:13;14.30;99.90
52849;DHT22;38714;53.180;5.812;2022-09-09T00:38:55;14.30;99.90
52849;DHT22;38714;53.180;5.812;2022-09-09T00:41:40;14.20;99.90
52849;DHT22;38714;53.180;5.812;2022-09-09T00:44:30;14.20;99.90
52849;DHT22;38714;53.180;5.812;2022-09-09T00:46:59;14.20;99.90
52849;DHT22;38714;53.180;5.812;2022-09-09T00:49:40;14.20;99.90
52849;DHT22;38714;53.180;5.812;2022-09-09T00:52:17;14.20;99.90
52849;DHT22;38714;53.180;5.812;2022-09-09T00:54:51;14.20;99.90
52849;DHT22;38714;53.180;5.812;2022-09-09T01:02:39;14.20;99.90
52849;DHT22;38714;53.180;5.812;2022-09-09T01:05:13;14.20;99.90
52849;DHT22;38714;53.180;5.812;2022-09-09T01:07:40;14.30;99.90
52849;DHT22;38714;53.180;5.812;2022-09-09T01:10:15;14.30;99.90
52849;DHT22;38714;53.180;5.812;2022-09-09T01:12:46;14.20;99.90
52849;DHT22;38714;53.180;5.812;2022-09-09T01:15:15;14.20;99.90
52849;DHT22;38714;53.180;5.812;2022-09-09T01:17:47;14.20;99.90
52849;DHT22;38714;53.180;5.812;2022-09-09T01:20:15;14.20;99.90
52849;DHT22;38714;53.180;5.812;2022-09-09T01:27:57;14.20;99.90
52849;DHT22;38714;53.180;5.812;2022-09-09T01:30:24;14.20;99.90
52849;DHT22;38714;53.180;5.812;2022-09-09T01:32:51;14.20;99.90
52849;DHT22;38714;53.180;5.812;2022-09-09T01:37:43;14.20;99.90
52849;DHT22;38714;53.180;5.812;2022-09-09T01:40:09;14.20;99.90
52849;DHT22;38714;53.180;5.812;2022-09-09T01:42:34;14.20;99.90
52849;DHT22;38714;53.180;5.812;2022-09-09T01:45:00;14.10;99.90
52849;DHT22;38714;53.180;5.812;2022-09-09T01:47:25;14.10;99.90
52849;DHT22;38714;53.180;5.812;2022-09-09T01:49:51;14.10;99.90
52849;DHT22;38714;53.180;5.812;2022-09-09T01:52:17;14.10;99.90
52849;DHT22;38714;53.180;5.812;2022-09-09T01:54:42;14.10;99.90
52849;DHT22;38714;53.180;5.812;2022-09-09T02:00:00;14.10;99.90
52849;DHT22;38714;53.180;5.812;2022-09-09T02:02:28;14.10;99.90
52849;DHT22;38714;53.180;5.812;2022-09-09T02:04:56;14.00;99.90
52849;DHT22;38714;53.180;5.812;2022-09-09T02:07:40;14.00;99.90
52849;DHT22;38714;53.180;5.812;2022-09-09T02:10:17;14.00;99.90
52849;DHT22;38714;53.180;5.812;2022-09-09T02:12:45;13.90;99.90
52849;DHT22;38714;53.180;5.812;2022-09-09T02:15:21;14.00;99.90
52849;DHT22;38714;53.180;5.812;2022-09-09T02:17:48;14.00;99.90
52849;DHT22;38714;53.180;5.812;2022-09-09T02:20:15;14.00;99.90
52849;DHT22;38714;53.180;5.812;2022-09-09T02:22:42;13.90;99.90
52849;DHT22;38714;53.180;5.812;2022-09-09T02:25:10;13.90;99.90
52849;DHT22;38714;53.180;5.812;2022-09-09T02:27:37;13.90;99.90
52849;DHT22;38714;53.180;5.812;2022-09-09T02:30:03;13.90;99.90
52849;DHT22;38714;53.180;5.812;2022-09-09T02:32:29;14.00;99.90
52849;DHT22;38714;53.180;5.812;2022-09-09T02:34:58;13.90;99.90
52849;DHT22;38714;53.180;5.812;2022-09-09T02:37:26;14.00;99.90
52849;DHT22;38714;53.180;5.812;2022-09-09T02:39:54;14.00;99.90
52849;DHT22;38714;53.180;5.812;2022-09-09T02:42:19;14.00;99.90
52849;DHT22;38714;53.180;5.812;2022-09-09T02:44:45;14.00;99.90
52849;DHT22;38714;53.180;5.812;2022-09-09T02:52:26;14.00;99.90
52849;DHT22;38714;53.180;5.812;2022-09-09T02:54:54;14.00;99.90
52849;DHT22;38714;53.180;5.812;2022-09-09T02:57:23;14.00;99.90
52849;DHT22;38714;53.180;5.812;2022-09-09T02:59:50;14.00;99.90
52849;DHT22;38714;53.180;5.812;2022-09-09T03:02:17;14.00;99.90
52849;DHT22;38714;53.180;5.812;2022-09-09T03:04:44;14.00;99.90
52849;DHT22;38714;53.180;5.812;2022-09-09T03:07:10;14.00;99.90
52849;DHT22;38714;53.180;5.812;2022-09-09T03:09:35;14.00;99.90
52849;DHT22;38714;53.180;5.812;2022-09-09T03:12:01;14.00;99.90
52849;DHT22;38714;53.180;5.812;2022-09-09T03:14:26;14.00;99.90
52849;DHT22;38714;53.180;5.812;2022-09-09T03:16:52;14.00;99.90
52849;DHT22;38714;53.180;5.812;2022-09-09T03:19:18;14.00;99.90
52849;DHT22;38714;53.180;5.812;2022-09-09T03:21:47;14.00;99.90
52849;DHT22;38714;53.180;5.812;2022-09-09T03:24:13;14.00;99.90
52849;DHT22;38714;53.180;5.812;2022-09-09T03:26:39;14.00;99.90
52849;DHT22;38714;53.180;5.812;2022-09-09T03:29:06;14.00;99.90
52849;DHT22;38714;53.180;5.812;2022-09-09T03:31:32;14.00;99.90
52849;DHT22;38714;53.180;5.812;2022-09-09T03:33:57;14.00;99.90
52849;DHT22;38714;53.180;5.812;2022-09-09T03:36:24;14.00;99.90
52849;DHT22;38714;53.180;5.812;2022-09-09T03:38:49;14.00;99.90
52849;DHT22;38714;53.180;5.812;2022-09-09T03:41:15;14.00;99.90
52849;DHT22;38714;53.180;5.812;2022-09-09T03:43:41;14.00;99.90
52849;DHT22;38714;53.180;5.812;2022-09-09T03:46:07;14.00;99.90
52849;DHT22;38714;53.180;5.812;2022-09-09T03:48:32;14.00;99.90
52849;DHT22;38714;53.180;5.812;2022-09-09T03:50:58;14.00;99.90
52849;DHT22;38714;53.180;5.812;2022-09-09T03:53:25;13.90;99.90
52849;DHT22;38714;53.180;5.812;2022-09-09T03:55:52;13.90;99.90
52849;DHT22;38714;53.180;5.812;2022-09-09T03:58:20;13.90;99.90
52849;DHT22;38714;53.180;5.812;2022-09-09T04:00:59;13.90;99.90
52849;DHT22;38714;53.180;5.812;2022-09-09T04:03:25;13.90;99.90
52849;DHT22;38714;53.180;5.812;2022-09-09T04:05:51;13.80;99.90
52849;DHT22;38714;53.180;5.812;2022-09-09T04:08:17;13.90;99.90
52849;DHT22;38714;53.180;5.812;2022-09-09T04:10:47;13.90;99.90
52849;DHT22;38714;53.180;5.812;2022-09-09T04:13:14;13.90;99.90
52849;DHT22;38714;53.180;5.812;2022-09-09T04:15:41;13.90;99.90
52849;DHT22;38714;53.180;5.812;2022-09-09T04:18:07;13.90;99.90
52849;DHT22;38714;53.180;5.812;2022-09-09T04:20:33;13.90;99.90
52849;DHT22;38714;53.180;5.812;2022-09-09T04:22:58;13.90;99.90
52849;DHT22;38714;53.180;5.812;2022-09-09T04:25:24;13.90;99.90
52849;DHT22;38714;53.180;5.812;2022-09-09T04:27:53;13.90;99.90
52849;DHT22;38714;53.180;5.812;2022-09-09T04:30:20;14.00;99.90
52849;DHT22;38714;53.180;5.812;2022-09-09T04:32:46;14.00;99.90
52849;DHT22;38714;53.180;5.812;2022-09-09T04:35:11;14.00;99.90
52849;DHT22;38714;53.180;5.812;2022-09-09T04:37:37;14.10;99.90
52849;DHT22;38714;53.180;5.812;2022-09-09T04:40:02;14.10;99.90
52849;DHT22;38714;53.180;5.812;2022-09-09T04:42:28;14.10;99.90
52849;DHT22;38714;53.180;5.812;2022-09-09T04:44:53;14.10;99.90
52849;DHT22;38714;53.180;5.812;2022-09-09T04:47:19;14.10;99.90
52849;DHT22;38714;53.180;5.812;2022-09-09T04:49:45;14.10;99.90
52849;DHT22;38714;53.180;5.812;2022-09-09T04:52:10;14.10;99.90
52849;DHT22;38714;53.180;5.812;2022-09-09T04:54:36;14.10;99.90
52849;DHT22;38714;53.180;5.812;2022-09-09T04:57:02;14.20;99.90
52849;DHT22;38714;53.180;5.812;2022-09-09T04:59:27;14.10;99.90
52849;DHT22;38714;53.180;5.812;2022-09-09T05:01:56;14.20;99.90
52849;DHT22;38714;53.180;5.812;2022-09-09T05:04:21;14.20;99.90
52849;DHT22;38714;53.180;5.812;2022-09-09T05:06:47;14.20;99.90
52849;DHT22;38714;53.180;5.812;2022-09-09T05:09:13;14.20;99.90
52849;DHT22;38714;53.180;5.812;2022-09-09T05:11:39;14.20;99.90
52849;DHT22;38714;53.180;5.812;2022-09-09T05:14:04;14.20;99.90
52849;DHT22;38714;53.180;5.812;2022-09-09T05:16:30;14.20;99.90
52849;DHT22;38714;53.180;5.812;2022-09-09T05:18:56;14.20;99.90
52849;DHT22;38714;53.180;5.812;2022-09-09T05:21:22;14.20;99.90
52849;DHT22;38714;53.180;5.812;2022-09-09T05:23:50;14.20;99.90
52849;DHT22;38714;53.180;5.812;2022-09-09T05:26:17;14.20;99.90
52849;DHT22;38714;53.180;5.812;2022-09-09T05:28:43;14.30;99.90
52849;DHT22;38714;53.180;5.812;2022-09-09T05:31:09;14.30;99.90
52849;DHT22;38714;53.180;5.812;2022-09-09T05:33:36;14.30;99.90
52849;DHT22;38714;53.180;5.812;2022-09-09T05:36:06;14.30;99.90
52849;DHT22;38714;53.180;5.812;2022-09-09T05:38:33;14.30;99.90
52849;DHT22;38714;53.180;5.812;2022-09-09T05:40:59;14.30;99.90
52849;DHT22;38714;53.180;5.812;2022-09-09T05:43:25;14.30;99.90
52849;DHT22;38714;53.180;5.812;2022-09-09T05:46:01;14.40;99.90
52849;DHT22;38714;53.180;5.812;2022-09-09T05:48:28;14.30;99.90
52849;DHT22;38714;53.180;5.812;2022-09-09T05:50:54;14.30;99.90
52849;DHT22;38714;53.180;5.812;2022-09-09T05:53:20;14.30;99.90
52849;DHT22;38714;53.180;5.812;2022-09-09T05:55:45;14.40;99.90
52849;DHT22;38714;53.180;5.812;2022-09-09T05:58:11;14.30;99.90
52849;DHT22;38714;53.180;5.812;2022-09-09T06:00:37;14.40;99.90
52849;DHT22;38714;53.180;5.812;2022-09-09T06:03:03;14.30;99.90
52849;DHT22;38714;53.180;5.812;2022-09-09T06:05:28;14.40;99.90
52849;DHT22;38714;53.180;5.812;2022-09-09T06:07:54;14.40;99.90
52849;DHT22;38714;53.180;5.812;2022-09-09T06:10:21;14.40;99.90
52849;DHT22;38714;53.180;5.812;2022-09-09T06:12:47;14.40;99.90
52849;DHT22;38714;53.180;5.812;2022-09-09T06:15:12;14.40;99.90
52849;DHT22;38714;53.180;5.812;2022-09-09T06:17:37;14.40;99.90
52849;DHT22;38714;53.180;5.812;2022-09-09T06:20:04;14.50;99.90
52849;DHT22;38714;53.180;5.812;2022-09-09T06:22:30;14.50;99.90
52849;DHT22;38714;53.180;5.812;2022-09-09T06:24:58;14.50;99.90
52849;DHT22;38714;53.180;5.812;2022-09-09T06:27:27;14.60;99.90
52849;DHT22;38714;53.180;5.812;2022-09-09T06:29:52;14.60;99.90
52849;DHT22;38714;53.180;5.812;2022-09-09T06:32:18;14.60;99.90
52849;DHT22;38714;53.180;5.812;2022-09-09T06:34:43;14.60;99.90
52849;DHT22;38714;53.180;5.812;2022-09-09T06:37:10;14.70;99.90
52849;DHT22;38714;53.180;5.812;2022-09-09T06:39:36;14.70;99.90
52849;DHT22;38714;53.180;5.812;2022-09-09T06:42:01;14.70;99.90
52849;DHT22;38714;53.180;5.812;2022-09-09T06:44:27;14.70;99.90
52849;DHT22;38714;53.180;5.812;2022-09-09T06:46:53;14.70;99.90
52849;DHT22;38714;53.180;5.812;2022-09-09T06:49:18;14.70;99.90
52849;DHT22;38714;53.180;5.812;2022-09-09T06:51:44;14.70;99.90
52849;DHT22;38714;53.180;5.812;2022-09-09T06:54:10;14.70;99.90
52849;DHT22;38714;53.180;5.812;2022-09-09T06:56:37;14.80;99.90
52849;DHT22;38714;53.180;5.812;2022-09-09T06:59:05;14.80;99.90
52849;DHT22;38714;53.180;5.812;2022-09-09T07:01:33;14.80;99.90
52849;DHT22;38714;53.180;5.812;2022-09-09T07:03:59;14.80;99.90
52849;DHT22;38714;53.180;5.812;2022-09-09T07:06:26;14.80;99.90
52849;DHT22;38714;53.180;5.812;2022-09-09T07:08:52;14.80;99.90
52849;DHT22;38714;53.180;5.812;2022-09-09T07:11:19;14.80;99.90
52849;DHT22;38714;53.180;5.812;2022-09-09T07:13:45;14.80;99.90
52849;DHT22;38714;53.180;5.812;2022-09-09T07:16:11;14.80;99.90
52849;DHT22;38714;53.180;5.812;2022-09-09T07:18:38;14.80;99.90
52849;DHT22;38714;53.180;5.812;2022-09-09T07:21:04;14.80;99.90
52849;DHT22;38714;53.180;5.812;2022-09-09T07:23:30;14.90;99.90
52849;DHT22;38714;53.180;5.812;2022-09-09T07:25:56;14.90;99.90
52849;DHT22;38714;53.180;5.812;2022-09-09T07:28:22;14.90;99.90
52849;DHT22;38714;53.180;5.812;2022-09-09T07:30:55;14.90;99.90
52849;DHT22;38714;53.180;5.812;2022-09-09T07:33:21;14.90;99.90
52849;DHT22;38714;53.180;5.812;2022-09-09T07:35:46;15.00;99.90
52849;DHT22;38714;53.180;5.812;2022-09-09T07:38:11;15.00;99.90
52849;DHT22;38714;53.180;5.812;2022-09-09T07:40:37;14.90;99.90
52849;DHT22;38714;53.180;5.812;2022-09-09T07:43:03;15.00;99.90
52849;DHT22;38714;53.180;5.812;2022-09-09T07:45:28;15.10;99.90
52849;DHT22;38714;53.180;5.812;2022-09-09T07:47:54;15.10;99.90
52849;DHT22;38714;53.180;5.812;2022-09-09T07:50:22;15.10;99.90
52849;DHT22;38714;53.180;5.812;2022-09-09T07:52:48;15.20;99.90
52849;DHT22;38714;53.180;5.812;2022-09-09T07:55:13;15.20;99.90
52849;DHT22;38714;53.180;5.812;2022-09-09T07:57:40;15.20;99.90
52849;DHT22;38714;53.180;5.812;2022-09-09T08:00:05;15.20;99.90
52849;DHT22;38714;53.180;5.812;2022-09-09T08:02:31;15.20;99.90
52849;DHT22;38714;53.180;5.812;2022-09-09T08:04:57;15.30;99.90
52849;DHT22;38714;53.180;5.812;2022-09-09T08:07:22;15.30;99.90
52849;DHT22;38714;53.180;5.812;2022-09-09T08:09:48;15.40;99.90
52849;DHT22;38714;53.180;5.812;2022-09-09T08:12:14;15.40;99.90
52849;DHT22;38714;53.180;5.812;2022-09-09T08:14:40;15.50;99.90
52849;DHT22;38714;53.180;5.812;2022-09-09T08:17:05;15.50;99.90
52849;DHT22;38714;53.180;5.812;2022-09-09T08:19:31;15.60;99.90
52849;DHT22;38714;53.180;5.812;2022-09-09T08:21:59;15.60;99.90
52849;DHT22;38714;53.180;5.812;2022-09-09T08:24:27;15.70;99.90
52849;DHT22;38714;53.180;5.812;2022-09-09T08:26:52;15.80;99.90
52849;DHT22;38714;53.180;5.812;2022-09-09T08:29:21;15.90;99.90
52849;DHT22;38714;53.180;5.812;2022-09-09T08:31:48;15.90;99.90
52849;DHT22;38714;53.180;5.812;2022-09-09T08:34:14;15.90;99.90
52849;DHT22;38714;53.180;5.812;2022-09-09T08:36:44;16.10;99.90
52849;DHT22;38714;53.180;5.812;2022-09-09T08:39:10;16.20;99.90
52849;DHT22;38714;53.180;5.812;2022-09-09T08:44:24;16.30;99.90
52849;DHT22;38714;53.180;5.812;2022-09-09T08:49:47;16.40;99.90
52849;DHT22;38714;53.180;5.812;2022-09-09T08:52:19;16.50;99.90
52849;DHT22;38714;53.180;5.812;2022-09-09T08:54:45;16.60;99.90
52849;DHT22;38714;53.180;5.812;2022-09-09T08:57:14;16.60;99.90
52849;DHT22;38714;53.180;5.812;2022-09-09T08:59:40;16.70;99.90
52849;DHT22;38714;53.180;5.812;2022-09-09T09:02:16;16.70;99.90
52849;DHT22;38714;53.180;5.812;2022-09-09T09:12:16;16.70;99.90
52849;DHT22;38714;53.180;5.812;2022-09-09T09:14:43;16.70;99.90
52849;DHT22;38714;53.180;5.812;2022-09-09T09:17:14;16.70;99.90
52849;DHT22;38714;53.180;5.812;2022-09-09T09:19:42;16.70;99.90
52849;DHT22;38714;53.180;5.812;2022-09-09T09:24:55;16.80;99.90
52849;DHT22;38714;53.180;5.812;2022-09-09T09:27:39;16.80;99.90
52849;DHT22;38714;53.180;5.812;2022-09-09T09:30:12;16.80;99.90
52849;DHT22;38714;53.180;5.812;2022-09-09T09:32:38;16.80;99.90
52849;DHT22;38714;53.180;5.812;2022-09-09T09:35:12;16.80;99.90
52849;DHT22;38714;53.180;5.812;2022-09-09T09:37:37;16.80;99.90
52849;DHT22;38714;53.180;5.812;2022-09-09T09:40:11;16.80;99.90
52849;DHT22;38714;53.180;5.812;2022-09-09T09:42:38;16.80;99.90
52849;DHT22;38714;53.180;5.812;2022-09-09T09:45:26;16.80;99.90
52849;DHT22;38714;53.180;5.812;2022-09-09T09:50:25;16.80;99.90
52849;DHT22;38714;53.180;5.812;2022-09-09T09:52:54;16.90;99.90
52849;DHT22;38714;53.180;5.812;2022-09-09T09:55:20;16.90;99.90
52849;DHT22;38714;53.180;5.812;2022-09-09T09:57:46;17.00;99.90
52849;DHT22;38714;53.180;5.812;2022-09-09T10:00:13;17.00;99.90
52849;DHT22;38714;53.180;5.812;2022-09-09T10:02:40;17.10;99.90
52849;DHT22;38714;53.180;5.812;2022-09-09T10:05:18;17.10;99.90
52849;DHT22;38714;53.180;5.812;2022-09-09T10:07:45;17.20;99.90
52849;DHT22;38714;53.180;5.812;2022-09-09T10:10:13;17.20;99.90
52849;DHT22;38714;53.180;5.812;2022-09-09T10:17:54;17.40;99.90
52849;DHT22;38714;53.180;5.812;2022-09-09T10:23:05;17.50;99.90
52849;DHT22;38714;53.180;5.812;2022-09-09T10:28:17;17.50;99.90
52849;DHT22;38714;53.180;5.812;2022-09-09T10:34:12;17.70;99.90
52849;DHT22;38714;53.180;5.812;2022-09-09T10:36:22;17.70;99.90
52849;DHT22;38714;53.180;5.812;2022-09-09T10:39:02;17.80;99.90
52849;DHT22;38714;53.180;5.812;2022-09-09T10:41:36;17.80;99.90
52849;DHT22;38714;53.180;5.812;2022-09-09T10:54:59;18.10;99.90
52849;DHT22;38714;53.180;5.812;2022-09-09T10:57:33;18.00;99.90
52849;DHT22;38714;53.180;5.812;2022-09-09T11:00:14;18.00;99.90
52849;DHT22;38714;53.180;5.812;2022-09-09T11:02:40;18.00;99.90
52849;DHT22;38714;53.180;5.812;2022-09-09T11:05:14;18.10;99.90
52849;DHT22;38714;53.180;5.812;2022-09-09T11:07:58;18.20;99.90
52849;DHT22;38714;53.180;5.812;2022-09-09T11:10:30;18.30;99.90
52849;DHT22;38714;53.180;5.812;2022-09-09T11:13:02;18.40;99.90
52849;DHT22;38714;53.180;5.812;2022-09-09T11:15:31;18.50;99.90
52849;DHT22;38714;53.180;5.812;2022-09-09T11:18:01;18.40;99.90
52849;DHT22;38714;53.180;5.812;2022-09-09T11:20:27;18.40;99.90
52849;DHT22;38714;53.180;5.812;2022-09-09T11:22:59;18.40;99.90
52849;DHT22;38714;53.180;5.812;2022-09-09T11:25:29;18.40;99.90
52849;DHT22;38714;53.180;5.812;2022-09-09T11:30:40;18.60;99.90
52849;DHT22;38714;53.180;5.812;2022-09-09T11:33:14;18.60;99.90
52849;DHT22;38714;53.180;5.812;2022-09-09T11:38:28;18.60;99.90
52849;DHT22;38714;53.180;5.812;2022-09-09T11:40:55;18.60;99.90
52849;DHT22;38714;53.180;5.812;2022-09-09T11:43:24;18.60;99.90
52849;DHT22;38714;53.180;5.812;2022-09-09T11:45:55;18.60;99.90
52849;DHT22;38714;53.180;5.812;2022-09-09T11:50:59;18.70;99.90
52849;DHT22;38714;53.180;5.812;2022-09-09T11:53:25;18.70;99.90
52849;DHT22;38714;53.180;5.812;2022-09-09T11:56:01;18.80;99.90
52849;DHT22;38714;53.180;5.812;2022-09-09T11:58:33;18.80;99.90
52849;DHT22;38714;53.180;5.812;2022-09-09T12:01:00;18.80;99.90
52849;DHT22;38714;53.180;5.812;2022-09-09T12:06:08;18.90;99.90
52849;DHT22;38714;53.180;5.812;2022-09-09T12:08:34;18.90;99.90
52849;DHT22;38714;53.180;5.812;2022-09-09T12:11:02;18.80;99.90
52849;DHT22;38714;53.180;5.812;2022-09-09T12:13:29;18.80;99.90
52849;DHT22;38714;53.180;5.812;2022-09-09T12:15:57;18.80;99.90
52849;DHT22;38714;53.180;5.812;2022-09-09T12:18:25;18.70;99.90
52849;DHT22;38714;53.180;5.812;2022-09-09T12:20:59;18.60;99.90
52849;DHT22;38714;53.180;5.812;2022-09-09T12:23:33;18.60;99.90
52849;DHT22;38714;53.180;5.812;2022-09-09T12:31:14;18.50;99.90
52849;DHT22;38714;53.180;5.812;2022-09-09T12:33:43;18.50;99.90
52849;DHT22;38714;53.180;5.812;2022-09-09T12:36:11;18.60;99.90
52849;DHT22;38714;53.180;5.812;2022-09-09T12:38:38;18.60;99.90
52849;DHT22;38714;53.180;5.812;2022-09-09T12:41:18;18.60;99.90
52849;DHT22;38714;53.180;5.812;2022-09-09T12:43:45;18.70;99.90
52849;DHT22;38714;53.180;5.812;2022-09-09T12:46:14;18.70;99.90
52849;DHT22;38714;53.180;5.812;2022-09-09T12:48:44;18.70;99.90
52849;DHT22;38714;53.180;5.812;2022-09-09T12:51:18;18.70;99.90
52849;DHT22;38714;53.180;5.812;2022-09-09T12:53:44;18.80;99.90
52849;DHT22;38714;53.180;5.812;2022-09-09T12:56:18;18.80;99.90
52849;DHT22;38714;53.180;5.812;2022-09-09T12:58:45;18.90;99.90
52849;DHT22;38714;53.180;5.812;2022-09-09T13:01:18;19.00;99.90
52849;DHT22;38714;53.180;5.812;2022-09-09T13:03:45;19.00;99.90
52849;DHT22;38714;53.180;5.812;2022-09-09T13:06:16;19.00;99.90
52849;DHT22;38714;53.180;5.812;2022-09-09T13:08:43;19.00;99.90
52849;DHT22;38714;53.180;5.812;2022-09-09T13:11:10;19.00;99.90
52849;DHT22;38714;53.180;5.812;2022-09-09T13:13:38;19.00;99.90
52849;DHT22;38714;53.180;5.812;2022-09-09T13:16:05;19.00;99.90
52849;DHT22;38714;53.180;5.812;2022-09-09T13:18:33;19.00;99.90
52849;DHT22;38714;53.180;5.812;2022-09-09T13:20:59;18.90;99.90
52849;DHT22;38714;53.180;5.812;2022-09-09T13:23:26;18.90;99.90
52849;DHT22;38714;53.180;5.812;2022-09-09T13:25:53;18.90;99.90
52849;DHT22;38714;53.180;5.812;2022-09-09T13:28:22;18.90;99.90
52849;DHT22;38714;53.180;5.812;2022-09-09T13:30:58;19.00;99.90
52849;DHT22;38714;53.180;5.812;2022-09-09T13:33:29;19.10;99.90
52849;DHT22;38714;53.180;5.812;2022-09-09T13:35:56;19.10;99.90
52849;DHT22;38714;53.180;5.812;2022-09-09T13:38:22;19.10;99.90
52849;DHT22;38714;53.180;5.812;2022-09-09T13:40:57;19.00;99.90
52849;DHT22;38714;53.180;5.812;2022-09-09T13:43:24;18.90;99.90
52849;DHT22;38714;53.180;5.812;2022-09-09T13:45:54;18.80;99.90
52849;DHT22;38714;53.180;5.812;2022-09-09T13:48:21;18.70;99.90
52849;DHT22;38714;53.180;5.812;2022-09-09T13:50:54;18.70;99.90
52849;DHT22;38714;53.180;5.812;2022-09-09T13:53:20;18.50;99.90
52849;DHT22;38714;53.180;5.812;2022-09-09T13:55:45;18.50;99.90
52849;DHT22;38714;53.180;5.812;2022-09-09T13:58:14;18.50;99.90
52849;DHT22;38714;53.180;5.812;2022-09-09T14:00:40;18.50;99.90
52849;DHT22;38714;53.180;5.812;2022-09-09T14:03:06;18.60;99.90
52849;DHT22;38714;53.180;5.812;2022-09-09T14:05:33;18.60;99.90
52849;DHT22;38714;53.180;5.812;2022-09-09T14:07:58;18.70;99.90
52849;DHT22;38714;53.180;5.812;2022-09-09T14:10:25;18.80;99.90
52849;DHT22;38714;53.180;5.812;2022-09-09T14:12:51;18.80;99.90
52849;DHT22;38714;53.180;5.812;2022-09-09T14:15:16;18.80;99.90
52849;DHT22;38714;53.180;5.812;2022-09-09T14:17:42;19.00;99.90
52849;DHT22;38714;53.180;5.812;2022-09-09T14:20:08;19.00;99.90
52849;DHT22;38714;53.180;5.812;2022-09-09T14:22:34;19.10;99.90
52849;DHT22;38714;53.180;5.812;2022-09-09T14:25:00;19.10;99.90
52849;DHT22;38714;53.180;5.812;2022-09-09T14:27:26;19.10;99.90
52849;DHT22;38714;53.180;5.812;2022-09-09T14:29:52;19.00;99.90
52849;DHT22;38714;53.180;5.812;2022-09-09T14:32:18;18.90;99.90
52849;DHT22;38714;53.180;5.812;2022-09-09T14:34:43;18.90;99.90
52849;DHT22;38714;53.180;5.812;2022-09-09T14:37:08;18.80;99.90
52849;DHT22;38714;53.180;5.812;2022-09-09T14:39:34;18.70;99.90
52849;DHT22;38714;53.180;5.812;2022-09-09T14:41:59;18.70;99.90
52849;DHT22;38714;53.180;5.812;2022-09-09T14:44:25;18.70;99.90
52849;DHT22;38714;53.180;5.812;2022-09-09T14:46:51;18.70;99.90
52849;DHT22;38714;53.180;5.812;2022-09-09T14:49:16;18.60;99.90
52849;DHT22;38714;53.180;5.812;2022-09-09T14:51:42;18.60;99.90
52849;DHT22;38714;53.180;5.812;2022-09-09T14:54:07;18.60;99.90
52849;DHT22;38714;53.180;5.812;2022-09-09T14:56:33;18.60;99.90
52849;DHT22;38714;53.180;5.812;2022-09-09T14:59:02;18.50;99.90
52849;DHT22;38714;53.180;5.812;2022-09-09T15:01:28;18.40;99.90
52849;DHT22;38714;53.180;5.812;2022-09-09T15:03:55;18.40;99.90
52849;DHT22;38714;53.180;5.812;2022-09-09T15:06:23;18.40;99.90
52849;DHT22;38714;53.180;5.812;2022-09-09T15:08:49;18.30;99.90
52849;DHT22;38714;53.180;5.812;2022-09-09T15:11:15;18.20;99.90
52849;DHT22;38714;53.180;5.812;2022-09-09T15:13:41;18.20;99.90
52849;DHT22;38714;53.180;5.812;2022-09-09T15:16:14;18.10;99.90
52849;DHT22;38714;53.180;5.812;2022-09-09T15:22:28;17.90;99.90
52849;DHT22;38714;53.180;5.812;2022-09-09T15:28:34;17.70;99.90
52849;DHT22;38714;53.180;5.812;2022-09-09T15:33:32;17.60;99.90
52849;DHT22;38714;53.180;5.812;2022-09-09T15:35:58;17.60;99.90
52849;DHT22;38714;53.180;5.812;2022-09-09T15:38:23;17.50;99.90
52849;DHT22;38714;53.180;5.812;2022-09-09T15:40:53;17.50;99.90
52849;DHT22;38714;53.180;5.812;2022-09-09T15:43:19;17.40;99.90
52849;DHT22;38714;53.180;5.812;2022-09-09T15:45:45;17.50;99.90
52849;DHT22;38714;53.180;5.812;2022-09-09T15:48:11;17.40;99.90
52849;DHT22;38714;53.180;5.812;2022-09-09T15:50:37;17.40;99.90
52849;DHT22;38714;53.180;5.812;2022-09-09T15:53:02;17.40;99.90
52849;DHT22;38714;53.180;5.812;2022-09-09T15:55:28;17.40;99.90
52849;DHT22;38714;53.180;5.812;2022-09-09T15:57:53;17.40;99.90
52849;DHT22;38714;53.180;5.812;2022-09-09T16:00:20;17.40;99.90
52849;DHT22;38714;53.180;5.812;2022-09-09T16:02:46;17.40;99.90
52849;DHT22;38714;53.180;5.812;2022-09-09T16:05:12;17.40;99.90
52849;DHT22;38714;53.180;5.812;2022-09-09T16:07:37;17.50;99.90
52849;DHT22;38714;53.180;5.812;2022-09-09T16:10:03;17.50;99.90
52849;DHT22;38714;53.180;5.812;2022-09-09T16:12:28;17.50;99.90
52849;DHT22;38714;53.180;5.812;2022-09-09T16:14:54;17.50;99.90
52849;DHT22;38714;53.180;5.812;2022-09-09T16:17:20;17.50;99.90
52849;DHT22;38714;53.180;5.812;2022-09-09T16:19:46;17.50;99.90
52849;DHT22;38714;53.180;5.812;2022-09-09T16:22:12;17.60;99.90
52849;DHT22;38714;53.180;5.812;2022-09-09T16:24:37;17.60;99.90
52849;DHT22;38714;53.180;5.812;2022-09-09T16:27:03;17.50;99.90
52849;DHT22;38714;53.180;5.812;2022-09-09T16:29:29;17.50;99.90
52849;DHT22;38714;53.180;5.812;2022-09-09T16:31:54;17.50;99.90
52849;DHT22;38714;53.180;5.812;2022-09-09T16:34:21;17.50;99.90
52849;DHT22;38714;53.180;5.812;2022-09-09T16:36:47;17.40;99.90
52849;DHT22;38714;53.180;5.812;2022-09-09T16:39:17;17.50;99.90
52849;DHT22;38714;53.180;5.812;2022-09-09T16:41:43;17.50;99.90
52849;DHT22;38714;53.180;5.812;2022-09-09T16:44:09;17.40;99.90
52849;DHT22;38714;53.180;5.812;2022-09-09T16:46:36;17.40;99.90
52849;DHT22;38714;53.180;5.812;2022-09-09T16:49:04;17.40;99.90
52849;DHT22;38714;53.180;5.812;2022-09-09T16:51:31;17.40;99.90
52849;DHT22;38714;53.180;5.812;2022-09-09T16:53:58;17.40;99.90
52849;DHT22;38714;53.180;5.812;2022-09-09T16:56:24;17.40;99.90
52849;DHT22;38714;53.180;5.812;2022-09-09T16:58:51;17.40;99.90
52849;DHT22;38714;53.180;5.812;2022-09-09T17:01:17;17.40;99.90
52849;DHT22;38714;53.180;5.812;2022-09-09T17:03:42;17.40;99.90
52849;DHT22;38714;53.180;5.812;2022-09-09T17:06:08;17.40;99.90
52849;DHT22;38714;53.180;5.812;2022-09-09T17:08:34;17.30;99.90